Nearby METAR Reports

KLNK - Lincoln, Nebraska, USA
Distance from station: WNW 8mi, 13km
Updated: Fri, 03-Apr-2020 4:22am CDT
Haze, Overcast
Haze, Overcast
 Wind from NNW
Wind: NNW 17 mph , 28 km/h, Gust: 30 mph , 48 km/h
Temperature: 25°F , -4°C
Wind Chill: 12°F , -11°C
Dew Point: 19°F , -7°C
Humidity: 80%
Barometer: 30.18 inHg , 1022 hPa
Summary: Haze
Clouds: Overcast
Visibility: 4 miles , 6 km
Cloud details: Mostly Cloudy 1900 ft
Overcast 2400 ft
2020/04/03 09:22 KLNK 030922Z AUTO 33015G26KT 4SM HZ BKN019 OVC024 M04/M07 A3018 RMK AO2 PK WND 35029/0859 T10441072
KAHQ - Wahoo, Nebraska, USA
Distance from station: N 31mi, 49km
Updated: Fri, 03-Apr-2020 4:15am CDT
Overcast
Overcast
 Wind from NNW
Wind: NNW 17 mph , 28 km/h, Gust: 28 mph , 44 km/h
Temperature: 25°F , -4°C
Wind Chill: 12°F , -11°C
Dew Point: 21°F , -6°C
Humidity: 86%
Barometer: 30.16 inHg , 1021.3 hPa
Clouds: Overcast
Visibility: 10 miles , 16 km
Cloud details: Overcast 1700 ft
2020/04/03 09:15 KAHQ 030915Z AUTO 33015G24KT 10SM OVC017 M04/M06 A3016 RMK AO2 T10431065
 
KBIE - Beatrice Municip, Nebraska, USA
Distance from station: S 36mi, 57km
Updated: Fri, 03-Apr-2020 4:15am CDT
Light snow, Overcast
Light snow, Overcast
 Wind from NNW
Wind: NNW 18 mph , 30 km/h, Gust: 24 mph , 39 km/h
Temperature: 27°F , -3°C
Wind Chill: 14°F , -10°C
Dew Point: 23°F , -5°C
Humidity: 86%
Barometer: 30.17 inHg , 1021.7 hPa
Summary: Light Snow
Clouds: Overcast
Visibility: 10 miles , 16 km
Cloud details: Overcast 1600 ft
2020/04/03 09:15 KBIE 030915Z AUTO 33016G21KT 10SM -SN OVC016 M03/M05 A3017 RMK AO2 LTG DSNT S AND SW T10351050
KMLE - Omaha/Millard, Nebraska, USA
Distance from station: NE 39mi, 63km
Updated: Fri, 03-Apr-2020 4:15am CDT
Overcast
Overcast
 Wind from NNW
Wind: NNW 10 mph , 17 km/h, Gust: 25 mph , 41 km/h
Temperature: 27°F , -3°C
Wind Chill: 18°F , -8°C
Dew Point: 21°F , -6°C
Humidity: 80%
Barometer: 30.14 inHg , 1020.7 hPa
Clouds: Overcast
Visibility: 10 miles , 16 km
Cloud details: Overcast 1600 ft
2020/04/03 09:15 KMLE 030915Z AUTO 34009G22KT 10SM OVC016 M03/M06 A3014 RMK AO2 LTG DSNT SW T10281065
 
KPMV - Plattsmouth Muni, Nebraska, USA
Distance from station: ENE 39mi, 63km
Updated: Fri, 03-Apr-2020 4:15am CDT
Overcast
Overcast
 Wind from NNW
Wind: NNW 12 mph , 19 km/h, Gust: 25 mph , 41 km/h
Temperature: 27°F , -3°C
Wind Chill: 16°F , -9°C
Dew Point: 23°F , -5°C
Humidity: 86%
Barometer: 30.11 inHg , 1019.6 hPa
Clouds: Overcast
Visibility: 10 miles , 16 km
Cloud details: Overcast 1200 ft
2020/04/03 09:15 KPMV 030915Z AUTO 33010G22KT 10SM OVC012 M03/M05 A3011 RMK AO2 LTG DSNT SW T10321054
KAFK - Nebraska City, Nebraska, USA
Distance from station: ESE 43mi, 69km
Updated: Fri, 03-Apr-2020 4:15am CDT
Mist, Overcast
Mist, Overcast
 Wind from N
Wind: N 22 mph , 35 km/h, Gust: 30 mph , 48 km/h
Temperature: 27°F , -3°C
Wind Chill: 13°F , -11°C
Dew Point: 27°F , -3°C
Humidity: 100%
Barometer: 30.07 inHg , 1018.3 hPa
Summary: Mist
Clouds: Overcast
Visibility: 5 miles , 8 km
Cloud details: Overcast 1100 ft
2020/04/03 09:15 KAFK 030915Z AUTO 36019G26KT 5SM BR OVC011 M03/M03 A3007 RMK AO2 LTG DSNT SW T10311035
 
KOFF - Offutt Afb/Belle, Nebraska, USA
Distance from station: ENE 44mi, 70km
Updated: Fri, 03-Apr-2020 3:56am CDT

 Wind from NNW
Wind: NNW 14 mph , 22 km/h, Gust: 28 mph , 44 km/h
Visibility: 6 miles , 10 km
2020/04/03 08:56 KOFF 030856Z 34012G24KT 6SM -PL OVC012 M03/M06 A3012 RMK AO2A CIG 011 RWY12 SLP214 P0000 60000 T10331063 52010 $
KFET - Fremont Muni Arp, Nebraska, USA
Distance from station: N 46mi, 74km
Updated: Fri, 03-Apr-2020 4:15am CDT
Overcast
Overcast
 Wind from calm
Wind: Calm
Temperature: 25°F , -4°C
Dew Point: 21°F , -6°C
Humidity: 86%
Barometer: 30.14 inHg , 1020.7 hPa
Clouds: Overcast
Visibility: 10 miles , 16 km
Cloud details: Overcast 1500 ft
2020/04/03 09:15 KFET 030915Z AUTO 00000KT 10SM OVC015 M04/M06 A3014 RMK AO2 LTG DSNT S T10401059
 
KBTA - Blair Muni, Nebraska, USA
Distance from station: NNE 51mi, 82km
Updated: Fri, 03-Apr-2020 4:15am CDT
Overcast
Overcast
 Wind from NNW
Wind: NNW 18 mph , 30 km/h, Gust: 22 mph , 35 km/h
Temperature: 25°F , -4°C
Wind Chill: 11°F , -12°C
Dew Point: 21°F , -6°C
Humidity: 86%
Barometer: 30.10 inHg , 1019.3 hPa
Clouds: Overcast
Visibility: 10 miles , 16 km
Cloud details: Overcast 1400 ft
2020/04/03 09:15 KBTA 030915Z AUTO 34016G19KT 10SM OVC014 M04/M06 A3010 RMK AO2 LTG DSNT SW T10411063
KJYR - York, Nebraska, USA
Distance from station: W 52mi, 84km
Updated: Fri, 03-Apr-2020 4:15am CDT
Overcast
Overcast
 Wind from NNW
Wind: NNW 14 mph , 22 km/h
Temperature: 21°F , -6°C
Wind Chill: 8°F , -13°C
Dew Point: 19°F , -7°C
Humidity: 93%
Barometer: 30.18 inHg , 1022 hPa
Clouds: Overcast
Visibility: 10 miles , 16 km
Cloud details: Few Clouds 1700 ft
Partly Cloudy 3300 ft
Overcast 6000 ft
2020/04/03 09:15 KJYR 030915Z AUTO 33012KT 10SM FEW017 SCT033 OVC060 M06/M07 A3018 RMK AO2 LTG DSNT S
 
KOMA - Omaha/Eppley, Nebraska, USA
Distance from station: NE 53mi, 85km
Updated: Fri, 03-Apr-2020 4:10am CDT
Overcast
Overcast
 Wind from N
Wind: N 24 mph , 39 km/h, Gust: 36 mph , 57 km/h
Temperature: 25°F , -4°C
Wind Chill: 10°F , -12°C
Dew Point: 21°F , -6°C
Humidity: 86%
Barometer: 30.11 inHg , 1019.6 hPa
Clouds: Overcast
Visibility: 10 miles , 16 km
Cloud details: Overcast 1500 ft
2020/04/03 09:10 KOMA 030910Z 35021G31KT 10SM OVC015 M04/M06 A3011 RMK AO2 PK WND 35031/0909 FZDZE10 P0000 I1000 T10391061 $
KOLU - Columbus Muni, Nebraska, USA
Distance from station: NW 58mi, 93km
Updated: Fri, 03-Apr-2020 3:56am CDT
Overcast
Overcast
 Wind from NNW
Wind: NNW 21 mph , 33 km/h, Gust: 28 mph , 44 km/h
Temperature: 21°F , -6°C
Wind Chill: 5°F , -15°C
Dew Point: 18°F , -8°C
Humidity: 86%
Barometer: 30.17 inHg , 1021.7 hPa
Clouds: Overcast
Visibility: 10 miles , 16 km
Cloud details: Mostly Cloudy 1500 ft
Mostly Cloudy 3800 ft
Overcast 11000 ft
2020/04/03 08:56 KOLU 030856Z AUTO 34018G24KT 10SM BKN015 BKN038 OVC110 M06/M08 A3017 RMK AO2 PK WND 33026/0840 SNE40 SLP240 P0000 60000 T10611083 50005 FZRANO